createdAt,value
2019-02-12T00:02:19.842Z,7.67
2019-02-12T00:04:50.097Z,5.27
2019-02-12T00:07:21.520Z,7.60
2019-02-12T00:09:51.773Z,7.90
2019-02-12T00:12:23.192Z,13.53
2019-02-12T00:14:53.448Z,6.97
2019-02-12T00:17:23.944Z,5.63
2019-02-12T00:19:54.195Z,5.17
2019-02-12T00:22:25.620Z,2.87
2019-02-12T00:24:55.867Z,4.33
2019-02-12T00:27:27.290Z,9.23
2019-02-12T00:29:58.759Z,7.13
2019-02-12T00:32:30.192Z,5.87
2019-02-12T00:35:00.449Z,6.67
2019-02-12T00:37:31.254Z,6.03
2019-02-12T00:40:01.514Z,4.93
2019-02-12T00:42:32.928Z,4.13
2019-02-12T00:45:03.191Z,6.40
2019-02-12T00:47:33.689Z,2.27
2019-02-12T00:50:07.990Z,7.50
2019-02-12T00:52:38.426Z,5.77
2019-02-12T00:55:09.144Z,5.07
2019-02-12T00:57:41.635Z,5.17
2019-02-12T01:00:14.496Z,8.13
2019-02-12T01:02:44.848Z,4.97
2019-02-12T01:05:15.107Z,7.13
2019-02-12T01:07:45.343Z,7.27
2019-02-12T01:10:16.763Z,4.47
2019-02-12T01:12:48.193Z,5.77
2019-02-12T01:15:18.444Z,6.20
2019-02-12T01:17:49.865Z,5.30
2019-02-12T01:20:20.123Z,7.03
2019-02-12T01:22:51.538Z,6.33
2019-02-12T01:25:21.797Z,5.97
2019-02-12T01:27:53.213Z,7.80
2019-02-12T01:30:23.465Z,5.90
2019-02-12T01:32:54.885Z,4.03
2019-02-12T01:35:25.160Z,9.87
2019-02-12T01:37:57.791Z,3.07
2019-02-12T01:40:28.044Z,4.50
2019-02-12T01:42:59.464Z,12.53
2019-02-12T01:45:29.719Z,5.53
2019-02-12T01:48:01.313Z,4.97
2019-02-12T01:50:31.691Z,3.87
2019-02-12T01:53:03.118Z,8.07
2019-02-12T01:55:33.368Z,2.97
2019-02-12T01:58:05.713Z,7.23
2019-02-12T02:00:35.967Z,9.53
2019-02-12T02:03:06.777Z,11.43
2019-02-12T02:05:38.451Z,3.93
2019-02-12T02:08:08.692Z,13.43
2019-02-12T02:10:39.188Z,9.83
2019-02-12T02:13:09.509Z,12.60
2019-02-12T02:15:39.933Z,4.67
2019-02-12T02:18:10.261Z,6.00
2019-02-12T02:20:40.510Z,8.47
2019-02-12T02:23:11.938Z,10.07
2019-02-12T02:25:42.185Z,9.57
2019-02-12T02:28:13.605Z,9.40
2019-02-12T02:30:43.864Z,15.57
2019-02-12T02:33:15.294Z,8.33
2019-02-12T02:35:46.182Z,10.90
2019-02-12T02:38:17.574Z,4.50
2019-02-12T02:40:50.114Z,5.70
2019-02-12T02:43:20.479Z,11.83
2019-02-12T02:45:50.724Z,13.40
2019-02-12T02:48:22.151Z,9.60
2019-02-12T02:50:52.755Z,4.23
2019-02-12T02:53:23.210Z,8.33
2019-02-12T02:55:53.466Z,7.57
2019-02-12T02:58:24.880Z,12.30
2019-02-12T03:00:55.136Z,11.93
2019-02-12T03:03:25.939Z,8.87
2019-02-12T03:05:56.194Z,10.30
2019-02-12T03:08:27.694Z,7.17
2019-02-12T03:10:59.086Z,7.33
2019-02-12T03:13:30.517Z,7.73
2019-02-12T03:16:00.761Z,6.43
2019-02-12T03:18:32.191Z,10.10
2019-02-12T03:21:02.444Z,9.03
2019-02-12T03:23:34.038Z,11.67
2019-02-12T03:26:04.414Z,10.20
2019-02-12T03:28:35.847Z,6.57
2019-02-12T03:31:06.104Z,6.87
2019-02-12T03:33:37.519Z,11.77
2019-02-12T03:36:08.997Z,9.60
2019-02-12T03:38:40.416Z,6.63
2019-02-12T03:41:10.670Z,5.27
2019-02-12T03:43:42.088Z,6.90
2019-02-12T03:46:12.348Z,9.77
2019-02-12T03:48:43.769Z,6.23
2019-02-12T03:51:14.624Z,6.13
2019-02-12T03:53:46.052Z,5.63
2019-02-12T03:56:16.305Z,7.23
2019-02-12T03:58:47.733Z,3.83
2019-02-12T04:01:17.988Z,4.33
2019-02-12T04:03:49.406Z,6.50
2019-02-12T04:06:19.657Z,8.20
2019-02-12T04:08:51.076Z,8.80
2019-02-12T04:11:21.328Z,7.37
2019-02-12T04:13:52.752Z,6.40
2019-02-12T04:16:24.231Z,10.10
2019-02-12T04:18:56.576Z,16.30
2019-02-12T04:21:28.045Z,9.70
2019-02-12T04:23:59.489Z,11.30
2019-02-12T04:26:30.947Z,11.67
2019-02-12T04:29:03.307Z,8.30
2019-02-12T04:31:33.553Z,10.60
2019-02-12T04:34:04.971Z,5.63
2019-02-12T04:36:35.268Z,9.53
2019-02-12T04:39:06.662Z,10.23
2019-02-12T04:41:38.119Z,10.70
2019-02-12T04:44:10.481Z,10.67
2019-02-12T04:46:42.863Z,9.63
2019-02-12T04:49:14.298Z,6.67
2019-02-12T04:51:45.852Z,14.37
2019-02-12T04:54:16.278Z,9.30
2019-02-12T04:56:46.531Z,7.90
2019-02-12T04:59:17.951Z,15.00
2019-02-12T05:01:49.420Z,9.30
2019-02-12T05:04:20.852Z,10.50
2019-02-12T05:06:51.110Z,11.87
2019-02-12T05:09:22.541Z,8.33
2019-02-12T05:11:53.830Z,5.37
2019-02-12T05:14:24.268Z,9.57
2019-02-12T05:16:56.903Z,9.60
2019-02-12T05:19:28.336Z,10.27
2019-02-12T05:21:58.589Z,4.03
2019-02-12T05:24:30.628Z,13.40
2019-02-12T05:27:02.093Z,14.47
2019-02-12T05:29:33.530Z,8.10
2019-02-12T05:32:05.002Z,10.97
2019-02-12T05:34:36.424Z,19.53
2019-02-12T05:37:19.627Z,13.47
2019-02-12T05:39:52.536Z,7.00
2019-02-12T05:42:22.785Z,3.67
2019-02-12T05:44:54.215Z,6.50
2019-02-12T05:47:25.664Z,7.40
2019-02-12T05:49:55.895Z,3.63
2019-02-12T05:52:27.337Z,9.00
2019-02-12T05:54:57.581Z,15.27
2019-02-12T05:57:30.244Z,12.13
2019-02-12T06:00:01.706Z,15.87
2019-02-12T06:02:32.537Z,10.37
2019-02-12T06:05:05.321Z,11.20
2019-02-12T06:07:35.752Z,8.23
2019-02-12T06:10:10.093Z,8.83
2019-02-12T06:12:40.333Z,11.13
2019-02-12T06:15:10.712Z,4.53
2019-02-12T06:17:40.952Z,5.77
2019-02-12T06:20:12.395Z,10.43
2019-02-12T06:22:43.842Z,13.30
2019-02-12T06:25:15.303Z,8.90
2019-02-12T06:27:45.528Z,6.80
2019-02-12T06:30:16.960Z,5.90
2019-02-12T06:32:47.222Z,5.47
2019-02-12T06:35:18.640Z,10.17
2019-02-12T06:37:50.095Z,10.13
2019-02-12T06:40:21.547Z,10.70
2019-02-12T06:42:53.008Z,5.20
2019-02-12T06:45:24.454Z,7.03
2019-02-12T06:47:56.839Z,8.37
2019-02-12T06:50:29.179Z,6.37
2019-02-12T06:53:00.651Z,4.27
2019-02-12T06:55:48.670Z,14.47
2019-02-12T06:58:18.910Z,4.80
2019-02-12T07:00:50.356Z,8.80
2019-02-12T07:03:22.871Z,7.23
2019-02-12T07:06:10.752Z,7.97
2019-02-12T07:08:52.889Z,4.07
2019-02-12T07:11:38.366Z,7.37
2019-02-12T07:14:23.560Z,8.23
2019-02-12T07:17:28.649Z,6.43
2019-02-12T07:20:20.160Z,4.87
2019-02-12T07:22:56.335Z,9.67
2019-02-12T07:25:48.703Z,8.63
2019-02-12T07:28:44.640Z,6.17
2019-02-12T07:31:24.142Z,4.83
2019-02-12T07:34:17.007Z,6.43
2019-02-12T07:37:11.356Z,11.83
2019-02-12T07:39:59.160Z,10.00
2019-02-12T07:42:44.765Z,9.20
2019-02-12T07:45:33.050Z,9.33
2019-02-12T07:48:12.132Z,6.63
2019-02-12T07:51:18.943Z,8.37
2019-02-12T07:54:08.604Z,5.70
2019-02-12T07:57:01.471Z,7.20
2019-02-12T07:59:34.976Z,8.53
2019-02-12T08:02:34.182Z,6.50
2019-02-12T08:05:24.978Z,8.63
2019-02-12T08:08:19.655Z,5.50
2019-02-12T08:11:02.046Z,6.90
2019-02-12T08:13:50.447Z,9.17
2019-02-12T08:16:38.845Z,6.43
2019-02-12T08:19:27.152Z,5.23
2019-02-12T08:22:33.610Z,10.23
2019-02-12T08:25:27.990Z,7.67
2019-02-12T08:28:04.049Z,11.83
2019-02-12T08:30:49.545Z,34.50
2019-02-12T08:33:28.536Z,10.20
2019-02-12T08:36:07.767Z,8.53
2019-02-12T08:38:47.158Z,7.80
2019-02-12T08:41:53.806Z,11.80
2019-02-12T08:44:42.535Z,15.00
2019-02-12T08:47:18.726Z,10.03
2019-02-12T08:50:06.865Z,10.90
2019-02-12T08:52:43.055Z,5.57
2019-02-12T08:55:31.624Z,11.53
2019-02-12T08:58:10.872Z,8.40
2019-02-12T09:00:48.254Z,5.77
2019-02-12T09:03:39.084Z,259.17
2019-02-12T09:06:31.749Z,90.47
2019-02-12T09:09:14.253Z,11.17
2019-02-12T09:12:05.772Z,16.97
2019-02-12T09:14:54.205Z,18.60
2019-02-12T09:17:42.508Z,17.93
2019-02-12T09:20:24.658Z,13.93
2019-02-12T09:23:29.565Z,11.80
2019-02-12T09:26:08.989Z,14.00
2019-02-12T09:29:08.251Z,16.20
2019-02-12T09:31:44.556Z,15.27
2019-02-12T09:34:30.055Z,12.93
2019-02-12T09:37:39.759Z,13.23
2019-02-12T09:40:20.222Z,9.37
2019-02-12T09:43:15.473Z,13.13
2019-02-12T09:45:58.057Z,6.13
2019-02-12T09:48:31.551Z,8.90
2019-02-12T09:51:18.928Z,7.50
2019-02-12T09:54:09.152Z,5.00
2019-02-12T09:56:48.495Z,7.03
2019-02-12T09:59:38.818Z,30.70
2019-02-12T10:02:26.914Z,12.57
2019-02-12T10:05:13.824Z,23.67
2019-02-12T10:08:08.950Z,23.10
2019-02-12T10:10:51.492Z,13.23
2019-02-12T10:13:42.905Z,10.33
2019-02-12T10:16:25.113Z,10.97
2019-02-12T10:19:19.653Z,13.43
2019-02-12T10:21:58.893Z,18.30
2019-02-12T10:24:45.629Z,22.80
2019-02-12T10:27:35.509Z,20.73
2019-02-12T10:30:25.454Z,18.33
2019-02-12T10:32:58.079Z,14.47
2019-02-12T10:35:29.864Z,25.50
2019-02-12T10:38:00.117Z,28.03
2019-02-12T10:40:30.658Z,16.93
2019-02-12T10:43:00.927Z,8.97
2019-02-12T10:45:31.360Z,7.73
2019-02-12T10:48:01.756Z,12.17
2019-02-12T10:50:34.119Z,10.00
2019-02-12T10:53:04.631Z,13.50
2019-02-12T10:55:36.399Z,6.67
2019-02-12T10:58:09.642Z,12.03
2019-02-12T11:00:40.143Z,7.77
2019-02-12T11:03:10.621Z,7.33
2019-02-12T11:05:42.059Z,8.97
2019-02-12T11:08:13.519Z,10.97
2019-02-12T11:10:45.212Z,12.77
2019-02-12T11:13:17.957Z,5.63
2019-02-12T11:15:49.472Z,11.90
2019-02-12T11:18:19.940Z,10.67
2019-02-12T11:20:51.377Z,6.50
2019-02-12T11:23:24.062Z,6.53
2019-02-12T11:25:55.502Z,8.17
2019-02-12T11:28:25.752Z,4.37
2019-02-12T11:30:57.357Z,9.17
2019-02-12T11:33:27.711Z,13.20
2019-02-12T11:35:59.161Z,12.57
2019-02-12T11:38:29.701Z,11.33
2019-02-12T11:41:01.154Z,9.87
2019-02-12T11:43:32.623Z,7.80
2019-02-12T11:46:04.038Z,7.13
2019-02-12T11:48:34.275Z,5.00
2019-02-12T11:51:06.325Z,3.80
2019-02-12T11:53:36.567Z,9.23
2019-02-12T11:56:07.992Z,5.73
2019-02-12T11:58:39.476Z,7.33
2019-02-12T12:01:13.793Z,5.17
2019-02-12T12:03:44.202Z,4.07
2019-02-12T12:06:17.744Z,6.90
2019-02-12T12:08:48.036Z,7.67
2019-02-12T12:11:19.481Z,8.70
2019-02-12T12:13:50.011Z,5.17
2019-02-12T12:16:23.365Z,4.60
2019-02-12T12:18:53.556Z,10.67
2019-02-12T12:21:24.981Z,8.43
2019-02-12T12:23:57.977Z,9.30
2019-02-12T12:26:29.423Z,13.30
2019-02-12T12:29:00.884Z,10.87
2019-02-12T12:31:32.327Z,6.73
2019-02-12T12:34:03.770Z,4.13
2019-02-12T12:36:34.009Z,7.40
2019-02-12T12:39:05.924Z,8.53
2019-02-12T12:41:38.747Z,7.60
2019-02-12T12:44:10.195Z,9.30
2019-02-12T12:46:40.421Z,6.90
2019-02-12T12:49:11.878Z,4.87
2019-02-12T12:51:43.338Z,8.37
2019-02-12T12:54:14.799Z,7.37
2019-02-12T12:56:46.239Z,7.90
2019-02-12T12:59:17.697Z,10.83
2019-02-12T13:01:49.154Z,6.10
2019-02-12T13:04:20.586Z,10.37
2019-02-12T13:06:52.045Z,8.13
2019-02-12T13:09:23.476Z,7.53
2019-02-12T13:11:53.752Z,6.97
2019-02-12T13:14:25.236Z,6.93
2019-02-12T13:16:55.784Z,6.70
2019-02-12T13:19:26.021Z,7.57
2019-02-12T13:21:56.629Z,6.30
2019-02-12T13:24:26.967Z,8.40
2019-02-12T13:26:58.451Z,10.43
2019-02-12T13:29:33.281Z,14.77
2019-02-12T13:32:07.187Z,9.83
2019-02-12T13:34:39.545Z,15.57
2019-02-12T13:37:10.994Z,17.93
2019-02-12T13:39:42.430Z,14.37
2019-02-12T13:42:13.910Z,13.83
2019-02-12T13:44:47.383Z,16.17
2019-02-12T13:47:21.398Z,12.10
2019-02-12T13:49:51.919Z,11.03
2019-02-12T13:52:22.172Z,6.27
2019-02-12T13:54:53.629Z,22.60
2019-02-12T13:57:25.080Z,13.37
2019-02-12T13:59:57.428Z,17.27
2019-02-12T14:02:29.819Z,18.60
2019-02-12T14:05:01.261Z,12.67
2019-02-12T14:07:32.717Z,19.80
2019-02-12T14:10:06.384Z,13.50
2019-02-12T14:12:36.854Z,10.20
2019-02-12T14:15:11.915Z,8.23
2019-02-12T14:17:45.271Z,16.87
2019-02-12T14:20:16.885Z,8.97
2019-02-12T14:22:47.248Z,8.30
2019-02-12T14:25:25.208Z,56.10
2019-02-12T14:27:50.658Z,15.00
2019-02-12T14:30:22.356Z,62.00
2019-02-12T14:32:53.590Z,19.77
2019-02-12T14:35:23.825Z,8.37
2019-02-12T14:37:54.081Z,18.60
2019-02-12T14:40:24.325Z,11.53
2019-02-12T14:42:54.588Z,17.87
2019-02-12T14:45:24.835Z,18.10
2019-02-12T14:47:55.083Z,10.60
2019-02-12T14:50:25.350Z,9.13
2019-02-12T14:52:55.587Z,4.83
2019-02-12T14:55:33.337Z,39.43
2019-02-12T14:57:57.824Z,13.07
2019-02-12T15:00:28.087Z,11.60
2019-02-12T15:02:58.339Z,10.57
2019-02-12T15:05:28.717Z,9.87
2019-02-12T15:08:00.186Z,9.73
2019-02-12T15:10:30.431Z,23.37
2019-02-12T15:13:00.697Z,16.93
2019-02-12T15:15:30.952Z,13.27
2019-02-12T15:18:01.210Z,28.83
2019-02-12T15:20:31.476Z,4.83
2019-02-12T15:23:01.748Z,10.07
2019-02-12T15:25:32.084Z,19.23
2019-02-12T15:28:02.349Z,36.07
2019-02-12T15:30:32.613Z,28.10
2019-02-12T15:33:03.436Z,11.80
2019-02-12T15:35:33.689Z,19.83
2019-02-12T15:38:04.008Z,19.83
2019-02-12T15:40:34.275Z,19.40
2019-02-12T15:43:05.750Z,24.43
2019-02-12T15:45:36.006Z,17.40
2019-02-12T15:48:07.416Z,18.90
2019-02-12T15:50:37.690Z,12.93
2019-02-12T15:53:07.936Z,43.10
2019-02-12T15:55:42.350Z,22.43
2019-02-12T15:58:10.157Z,21.43
2019-02-12T16:00:41.523Z,26.00
2019-02-12T16:03:12.352Z,33.63
2019-02-12T16:05:42.644Z,31.80
2019-02-12T16:08:12.895Z,30.63
2019-02-12T16:10:43.180Z,7.13
2019-02-12T16:13:13.729Z,32.53
2019-02-12T16:15:47.129Z,19.83
2019-02-12T16:18:17.439Z,14.10
2019-02-12T16:20:47.692Z,18.93
2019-02-12T16:23:17.998Z,23.87
2019-02-12T16:25:48.262Z,14.00
2019-02-12T16:28:18.531Z,23.47
2019-02-12T16:30:48.805Z,22.33
2019-02-12T16:33:19.084Z,28.30
2019-02-12T16:35:49.356Z,19.80
2019-02-12T16:38:19.631Z,229.23
2019-02-12T16:40:50.811Z,134.70
2019-02-12T16:43:21.103Z,197.87
2019-02-12T16:46:00.546Z,133.77
2019-02-12T16:48:30.820Z,106.10
2019-02-12T16:51:01.096Z,39.03
2019-02-12T16:53:31.361Z,33.13
2019-02-12T16:56:08.134Z,29.57
2019-02-12T16:58:33.921Z,49.13
2019-02-12T17:01:04.587Z,34.50
2019-02-12T17:03:34.972Z,87.60
2019-02-12T17:06:05.737Z,53.73
2019-02-12T17:08:36.057Z,82.23
2019-02-12T17:11:06.361Z,44.80
2019-02-12T17:13:36.621Z,43.90
2019-02-12T17:16:06.897Z,33.17
2019-02-12T17:18:37.330Z,17.87
2019-02-12T17:21:07.593Z,24.47
2019-02-12T17:23:39.384Z,15.00
2019-02-12T17:26:16.252Z,21.17
2019-02-12T17:28:44.439Z,84.67
2019-02-12T17:31:18.007Z,21.10
2019-02-12T17:33:49.730Z,48.67
2019-02-12T17:36:20.321Z,44.23
2019-02-12T17:38:50.705Z,56.30
2019-02-12T17:41:21.989Z,81.23
2019-02-12T17:43:52.269Z,73.97
2019-02-12T17:46:22.568Z,74.63
2019-02-12T17:48:54.517Z,52.53
2019-02-12T17:51:25.056Z,62.83
2019-02-12T17:53:56.514Z,65.73
2019-02-12T17:56:26.879Z,38.40
2019-02-12T17:58:57.937Z,42.30
2019-02-12T18:01:28.591Z,31.50
2019-02-12T18:03:58.860Z,43.50
2019-02-12T18:06:29.330Z,48.13
2019-02-12T18:08:59.601Z,35.03
2019-02-12T18:11:30.073Z,25.60
2019-02-12T18:14:00.360Z,32.27
2019-02-12T18:16:31.741Z,17.83
2019-02-12T18:19:02.069Z,36.77
2019-02-12T18:21:32.350Z,32.37
2019-02-12T18:24:02.607Z,74.33
2019-02-12T18:26:33.682Z,42.53
2019-02-12T18:29:04.055Z,61.40
2019-02-12T18:31:35.522Z,35.77
2019-02-12T18:34:06.040Z,54.83
2019-02-12T18:36:36.491Z,43.73
2019-02-12T18:39:06.747Z,42.90
2019-02-12T18:41:38.892Z,43.03
2019-02-12T18:44:09.238Z,97.20
2019-02-12T18:46:39.704Z,50.87
2019-02-12T18:49:10.066Z,50.70
2019-02-12T18:51:40.366Z,64.40
2019-02-12T18:54:11.828Z,67.13
2019-02-12T18:56:42.403Z,101.17
2019-02-12T18:59:13.523Z,50.60
2019-02-12T19:01:43.793Z,35.87
2019-02-12T19:04:14.138Z,33.60
2019-02-12T19:06:44.605Z,30.93
2019-02-12T19:09:17.062Z,24.97
2019-02-12T19:11:54.185Z,49.63
2019-02-12T19:14:21.063Z,45.70
2019-02-12T19:16:51.341Z,43.07
2019-02-12T19:19:21.585Z,79.57
2019-02-12T19:21:52.164Z,53.20
2019-02-12T19:24:22.609Z,40.23
2019-02-12T19:26:52.859Z,58.10
2019-02-12T19:29:23.361Z,52.63
2019-02-12T19:31:59.201Z,156.97
2019-02-12T19:34:25.807Z,48.90
2019-02-12T19:36:56.079Z,68.23
2019-02-12T19:39:26.407Z,52.70
2019-02-12T19:41:56.927Z,34.57
2019-02-12T19:44:27.394Z,52.53
2019-02-12T19:46:57.865Z,29.13
2019-02-12T19:49:29.262Z,43.07
2019-02-12T19:51:59.542Z,43.97
2019-02-12T19:54:30.837Z,41.50
2019-02-12T19:57:03.749Z,30.67
2019-02-12T19:59:34.910Z,49.23
2019-02-12T20:02:05.191Z,39.57
2019-02-12T20:04:36.596Z,65.83
2019-02-12T20:07:06.853Z,58.50
2019-02-12T20:09:37.225Z,37.77
2019-02-12T20:12:18.754Z,40.83
2019-02-12T20:14:49.032Z,31.90
2019-02-12T20:17:20.478Z,34.37
2019-02-12T20:19:53.608Z,41.40
2019-02-12T20:22:23.885Z,45.50
2019-02-12T20:24:54.231Z,39.07
2019-02-12T20:27:24.506Z,43.77
2019-02-12T20:29:56.836Z,34.93
2019-02-12T20:32:28.558Z,37.87
2019-02-12T20:35:23.613Z,26.47
2019-02-12T20:37:57.197Z,30.97
2019-02-12T20:40:35.657Z,33.53
2019-02-12T20:43:11.437Z,51.97
2019-02-12T20:45:51.394Z,44.47
2019-02-12T20:48:30.971Z,70.40
2019-02-12T20:51:12.469Z,56.80
2019-02-12T20:53:59.519Z,48.70
2019-02-12T20:56:29.819Z,48.37
2019-02-12T20:59:00.629Z,45.37
2019-02-12T21:01:31.764Z,47.53
2019-02-12T21:04:02.211Z,39.13
2019-02-12T21:06:32.539Z,36.80
2019-02-12T21:09:03.085Z,33.50
2019-02-12T21:11:35.604Z,29.33
2019-02-12T21:14:10.015Z,28.10
2019-02-12T21:16:43.110Z,32.97
2019-02-12T21:19:14.896Z,25.83
2019-02-12T21:21:47.039Z,42.67
2019-02-12T21:24:17.340Z,38.80
2019-02-12T21:26:49.215Z,31.67
2019-02-12T21:29:20.829Z,36.23
2019-02-12T21:31:52.150Z,32.63
2019-02-12T21:34:22.463Z,26.67
2019-02-12T21:36:54.008Z,33.10
2019-02-12T21:39:27.932Z,30.40
2019-02-12T21:41:59.536Z,29.57
2019-02-12T21:44:31.588Z,25.37
2019-02-12T21:47:02.561Z,32.30
2019-02-12T21:49:33.232Z,32.47
2019-02-12T21:52:03.489Z,30.17
2019-02-12T21:54:33.742Z,22.63
2019-02-12T21:57:04.142Z,24.47
2019-02-12T21:59:34.399Z,24.73
2019-02-12T22:02:05.553Z,37.57
2019-02-12T22:04:35.879Z,41.80
2019-02-12T22:07:07.233Z,37.63
2019-02-12T22:09:40.670Z,52.17
2019-02-12T22:12:13.198Z,80.43
2019-02-12T22:14:57.574Z,109.67
2019-02-12T22:17:32.206Z,101.37
2019-02-12T22:20:10.605Z,62.83
2019-02-12T22:22:42.985Z,77.67
2019-02-12T22:25:14.448Z,55.67
2019-02-12T22:27:48.596Z,72.67
2019-02-12T22:30:25.166Z,51.70
2019-02-12T22:33:01.504Z,48.10
2019-02-12T22:35:40.588Z,35.77
2019-02-12T22:38:12.237Z,29.20
2019-02-12T22:40:44.074Z,54.10
2019-02-12T22:43:15.506Z,61.57
2019-02-12T22:45:47.548Z,44.53
2019-02-12T22:48:17.877Z,41.57
2019-02-12T22:50:48.710Z,31.53
2019-02-12T22:53:19.336Z,25.63
2019-02-12T22:55:50.490Z,23.30
2019-02-12T22:58:20.726Z,25.90
2019-02-12T23:00:55.479Z,25.73
2019-02-12T23:03:27.318Z,18.37
2019-02-12T23:05:57.581Z,19.80
2019-02-12T23:08:27.818Z,21.70
2019-02-12T23:10:58.061Z,20.87
2019-02-12T23:13:28.305Z,19.80
2019-02-12T23:15:58.551Z,26.43
2019-02-12T23:18:28.933Z,25.77
2019-02-12T23:21:00.240Z,32.53
2019-02-12T23:23:30.654Z,23.60
2019-02-12T23:26:00.911Z,23.47
2019-02-12T23:28:31.843Z,21.50
2019-02-12T23:31:02.087Z,23.17
2019-02-12T23:33:32.322Z,23.77
2019-02-12T23:36:03.202Z,29.73
2019-02-12T23:38:33.445Z,30.37
2019-02-12T23:41:03.710Z,21.17
2019-02-12T23:43:34.070Z,26.10
2019-02-12T23:46:05.560Z,21.83
2019-02-12T23:48:35.796Z,21.73
2019-02-12T23:51:06.194Z,26.83
2019-02-12T23:53:36.437Z,23.10
2019-02-12T23:56:06.701Z,19.27
2019-02-12T23:58:37.067Z,18.23
